createdAt,value
2017-09-25T00:01:25.249Z,10.90
2017-09-25T00:03:54.126Z,10.90
2017-09-25T00:06:22.203Z,10.80
2017-09-25T00:08:51.043Z,10.90
2017-09-25T00:11:19.892Z,10.90
2017-09-25T00:13:48.744Z,11.00
2017-09-25T00:16:16.843Z,10.90
2017-09-25T00:18:44.914Z,10.90
2017-09-25T00:21:13.040Z,10.90
2017-09-25T00:23:41.111Z,10.90
2017-09-25T00:26:09.208Z,11.00
2017-09-25T00:28:37.288Z,11.00
2017-09-25T00:31:05.372Z,11.00
2017-09-25T00:33:33.452Z,10.90
2017-09-25T00:36:01.545Z,10.90
2017-09-25T00:38:30.405Z,10.90
2017-09-25T00:40:58.500Z,10.80
2017-09-25T00:43:27.343Z,10.70
2017-09-25T00:45:55.422Z,10.70
2017-09-25T00:48:23.503Z,10.70
2017-09-25T00:50:51.582Z,10.70
2017-09-25T00:56:27.884Z,10.50
2017-09-25T00:58:55.955Z,10.50
2017-09-25T01:01:41.793Z,10.50
2017-09-25T01:04:27.668Z,10.50
2017-09-25T01:06:55.776Z,10.50
2017-09-25T01:09:23.887Z,10.40
2017-09-25T01:11:51.963Z,10.50
2017-09-25T01:14:20.808Z,10.40
2017-09-25T01:16:48.891Z,10.40
2017-09-25T01:19:16.967Z,10.40
2017-09-25T01:21:45.052Z,10.40
2017-09-25T01:24:13.128Z,10.50
2017-09-25T01:26:41.206Z,10.40
2017-09-25T01:29:09.279Z,10.30
2017-09-25T01:31:37.355Z,10.30
2017-09-25T01:34:05.431Z,10.30
2017-09-25T01:36:33.503Z,10.40
2017-09-25T01:39:01.597Z,10.40
2017-09-25T01:41:30.430Z,10.20
2017-09-25T01:43:58.521Z,10.20
2017-09-25T01:46:26.596Z,10.20
2017-09-25T01:48:54.674Z,10.20
2017-09-25T01:51:22.748Z,10.20
2017-09-25T01:53:50.822Z,10.20
2017-09-25T01:56:18.895Z,10.30
2017-09-25T01:58:46.981Z,10.40
2017-09-25T02:01:15.839Z,10.30
2017-09-25T02:03:43.926Z,10.20
2017-09-25T02:06:12.003Z,10.30
2017-09-25T02:08:40.079Z,10.30
2017-09-25T02:11:08.156Z,10.30
2017-09-25T02:13:37.020Z,10.30
2017-09-25T02:16:05.092Z,10.30
2017-09-25T02:18:33.179Z,10.30
2017-09-25T02:21:01.243Z,10.30
2017-09-25T02:23:29.328Z,10.40
2017-09-25T02:25:57.407Z,10.40
2017-09-25T02:28:25.486Z,10.30
2017-09-25T02:30:54.331Z,10.20
2017-09-25T02:33:22.410Z,10.20
2017-09-25T02:35:50.483Z,10.10
2017-09-25T02:38:18.576Z,10.10
2017-09-25T02:40:46.682Z,10.10
2017-09-25T02:43:15.528Z,10.10
2017-09-25T02:45:43.599Z,10.00
2017-09-25T02:48:11.691Z,10.10
2017-09-25T02:50:39.764Z,10.10
2017-09-25T02:53:07.895Z,10.10
2017-09-25T02:55:35.965Z,10.20
2017-09-25T02:58:04.816Z,10.20
2017-09-25T03:00:33.655Z,10.20
2017-09-25T03:03:01.739Z,10.20
2017-09-25T03:05:29.815Z,10.20
2017-09-25T03:07:57.901Z,10.20
2017-09-25T03:10:25.972Z,10.30
2017-09-25T03:12:54.055Z,10.30
2017-09-25T03:15:22.131Z,10.40
2017-09-25T03:17:50.219Z,10.40
2017-09-25T03:20:19.064Z,10.40
2017-09-25T03:22:47.156Z,10.40
2017-09-25T03:25:15.235Z,10.40
2017-09-25T03:27:43.314Z,10.40
2017-09-25T03:30:12.156Z,10.50
2017-09-25T03:32:40.242Z,10.50
2017-09-25T03:35:08.324Z,10.50
2017-09-25T03:37:36.407Z,10.50
2017-09-25T03:40:04.487Z,10.60
2017-09-25T03:42:32.568Z,10.60
2017-09-25T03:45:00.668Z,10.70
2017-09-25T03:47:29.516Z,10.70
2017-09-25T03:49:57.599Z,10.70
2017-09-25T03:52:25.675Z,10.70
2017-09-25T03:54:53.743Z,10.80
2017-09-25T03:57:21.832Z,10.80
2017-09-25T03:59:50.887Z,10.80
2017-09-25T04:02:19.022Z,10.90
2017-09-25T04:04:47.087Z,10.90
2017-09-25T04:07:15.180Z,11.00
2017-09-25T04:09:43.260Z,11.10
2017-09-25T04:12:11.326Z,11.20
2017-09-25T04:14:39.669Z,11.20
2017-09-25T04:17:08.521Z,11.10
2017-09-25T04:19:36.607Z,11.10
2017-09-25T04:22:04.684Z,11.10
2017-09-25T04:24:32.772Z,11.10
2017-09-25T04:27:01.611Z,10.90
2017-09-25T04:29:29.708Z,10.80
2017-09-25T04:31:57.787Z,10.70
2017-09-25T04:34:25.872Z,10.60
2017-09-25T04:36:53.944Z,10.60
2017-09-25T04:39:22.027Z,10.60
2017-09-25T04:41:50.898Z,10.70
2017-09-25T04:44:18.983Z,10.70
2017-09-25T04:46:47.051Z,10.70
2017-09-25T04:49:15.136Z,10.80
2017-09-25T04:51:43.972Z,10.80
2017-09-25T04:54:12.066Z,10.80
2017-09-25T04:56:40.134Z,10.80
2017-09-25T04:59:08.223Z,10.80
2017-09-25T05:01:36.308Z,10.80
2017-09-25T05:04:04.383Z,10.80
2017-09-25T05:06:32.458Z,10.80
2017-09-25T05:09:00.539Z,10.80
2017-09-25T05:11:29.374Z,10.70
2017-09-25T05:13:57.475Z,10.60
2017-09-25T05:16:25.581Z,10.70
2017-09-25T05:18:54.431Z,10.80
2017-09-25T05:21:22.505Z,10.80
2017-09-25T05:23:50.595Z,10.80
2017-09-25T05:26:18.668Z,10.80
2017-09-25T05:28:46.747Z,10.80
2017-09-25T05:31:14.818Z,10.70
2017-09-25T05:33:42.928Z,10.70
2017-09-25T05:36:11.007Z,10.70
2017-09-25T05:38:39.095Z,10.60
2017-09-25T05:41:07.187Z,10.60
2017-09-25T05:43:35.263Z,10.60
2017-09-25T05:46:03.351Z,10.60
2017-09-25T05:48:31.457Z,10.70
2017-09-25T05:50:59.531Z,10.80
2017-09-25T05:53:27.618Z,10.90
2017-09-25T05:55:55.708Z,10.90
2017-09-25T05:58:23.788Z,11.00
2017-09-25T06:00:51.888Z,11.00
2017-09-25T06:03:19.976Z,11.00
2017-09-25T06:05:48.824Z,11.10
2017-09-25T06:08:16.946Z,11.10
2017-09-25T06:10:45.792Z,11.20
2017-09-25T06:13:13.875Z,11.10
2017-09-25T06:15:41.960Z,11.20
2017-09-25T06:18:10.839Z,11.10
2017-09-25T06:20:38.924Z,11.10
2017-09-25T06:23:07.000Z,11.10
2017-09-25T06:25:35.071Z,11.10
2017-09-25T06:28:03.161Z,11.10
2017-09-25T06:30:32.004Z,10.80
2017-09-25T06:33:00.098Z,10.80
2017-09-25T06:35:28.175Z,10.90
2017-09-25T06:37:56.308Z,10.80
2017-09-25T06:40:24.378Z,10.80
2017-09-25T06:42:52.887Z,10.80
2017-09-25T06:45:20.980Z,10.90
2017-09-25T06:47:49.056Z,11.00
2017-09-25T06:50:17.156Z,11.10
2017-09-25T06:52:45.240Z,11.20
2017-09-25T06:55:13.323Z,11.20
2017-09-25T06:57:41.390Z,11.30
2017-09-25T07:00:09.487Z,11.30
2017-09-25T07:02:37.580Z,11.40
2017-09-25T07:05:05.658Z,11.40
2017-09-25T07:07:33.731Z,11.30
2017-09-25T07:10:01.826Z,11.30
2017-09-25T07:12:30.671Z,11.40
2017-09-25T07:14:59.556Z,11.40
2017-09-25T07:17:27.635Z,11.50
2017-09-25T07:19:55.720Z,11.50
2017-09-25T07:22:23.796Z,11.60
2017-09-25T07:24:51.892Z,11.70
2017-09-25T07:27:20.732Z,11.90
2017-09-25T07:29:48.833Z,11.80
2017-09-25T07:32:16.918Z,11.90
2017-09-25T07:34:45.006Z,12.00
2017-09-25T07:37:13.087Z,12.10
2017-09-25T07:39:41.182Z,12.20
2017-09-25T07:42:09.260Z,12.30
2017-09-25T07:44:37.380Z,12.40
2017-09-25T07:47:05.459Z,12.50
2017-09-25T07:49:34.314Z,12.60
2017-09-25T07:52:02.412Z,12.50
2017-09-25T07:54:30.518Z,12.60
2017-09-25T07:56:58.675Z,12.70
2017-09-25T07:59:27.543Z,12.80
2017-09-25T08:01:55.622Z,12.80
2017-09-25T08:04:23.708Z,12.80
2017-09-25T08:06:52.560Z,13.00
2017-09-25T08:09:20.640Z,13.00
2017-09-25T08:11:48.733Z,13.10
2017-09-25T08:14:16.816Z,13.20
2017-09-25T08:16:45.675Z,13.30
2017-09-25T08:19:13.781Z,13.30
2017-09-25T08:21:41.850Z,13.20
2017-09-25T08:24:10.707Z,13.40
2017-09-25T08:26:38.795Z,13.40
2017-09-25T08:29:06.892Z,13.40
2017-09-25T08:31:35.747Z,13.40
2017-09-25T08:34:03.835Z,13.40
2017-09-25T08:36:31.916Z,13.50
2017-09-25T08:38:59.988Z,13.50
2017-09-25T08:41:28.068Z,13.50
2017-09-25T08:43:56.209Z,13.50
2017-09-25T08:46:24.681Z,13.50
2017-09-25T08:48:52.764Z,13.60
2017-09-25T08:51:21.071Z,13.70
2017-09-25T08:53:49.158Z,13.70
2017-09-25T08:56:18.008Z,13.90
2017-09-25T08:58:46.124Z,13.80
2017-09-25T09:01:15.219Z,14.00
2017-09-25T09:03:44.190Z,14.20
2017-09-25T09:06:12.263Z,14.10
2017-09-25T09:08:47.180Z,14.30
2017-09-25T09:11:15.389Z,14.30
2017-09-25T09:13:44.319Z,14.40
2017-09-25T09:16:12.448Z,14.40
2017-09-25T09:18:40.529Z,14.30
2017-09-25T09:21:09.415Z,14.40
2017-09-25T09:23:38.259Z,14.60
2017-09-25T09:26:06.358Z,14.60
2017-09-25T09:28:34.839Z,14.70
2017-09-25T09:31:02.943Z,14.90
2017-09-25T09:33:31.931Z,15.20
2017-09-25T09:36:00.779Z,15.30
2017-09-25T09:38:28.861Z,15.30
2017-09-25T09:40:57.007Z,15.40
2017-09-25T09:43:25.076Z,15.50
2017-09-25T09:45:53.166Z,15.60
2017-09-25T09:48:22.067Z,15.60
2017-09-25T09:50:50.156Z,15.50
2017-09-25T09:53:18.223Z,15.60
2017-09-25T09:55:46.312Z,15.50
2017-09-25T09:58:14.379Z,15.50
2017-09-25T10:00:42.463Z,15.70
2017-09-25T10:03:20.595Z,15.80
2017-09-25T10:05:48.796Z,16.00
2017-09-25T10:08:16.885Z,16.20
2017-09-25T10:10:44.986Z,16.30
2017-09-25T10:13:13.112Z,16.20
2017-09-25T10:15:41.205Z,16.20
2017-09-25T10:18:09.280Z,16.30
2017-09-25T10:20:37.380Z,16.30
2017-09-25T10:23:05.461Z,16.30
2017-09-25T10:25:34.353Z,16.30
2017-09-25T10:28:03.205Z,16.30
2017-09-25T10:30:31.304Z,16.30
2017-09-25T10:32:59.391Z,16.40
2017-09-25T10:35:28.256Z,16.30
2017-09-25T10:37:56.336Z,16.30
2017-09-25T10:40:24.432Z,16.30
2017-09-25T10:42:53.290Z,16.30
2017-09-25T10:45:21.391Z,16.30
2017-09-25T10:47:49.571Z,16.30
2017-09-25T10:50:18.432Z,16.40
2017-09-25T10:52:46.518Z,16.40
2017-09-25T10:55:14.591Z,16.50
2017-09-25T10:57:42.684Z,16.50
2017-09-25T11:00:10.785Z,16.50
2017-09-25T11:02:38.862Z,16.50
2017-09-25T11:05:06.932Z,16.60
2017-09-25T11:07:35.016Z,16.60
2017-09-25T11:10:03.096Z,16.70
2017-09-25T11:12:31.172Z,16.60
2017-09-25T11:14:59.274Z,16.60
2017-09-25T11:17:27.349Z,16.50
2017-09-25T11:19:55.431Z,16.60
2017-09-25T11:22:24.284Z,16.70
2017-09-25T11:24:52.371Z,16.70
2017-09-25T11:27:20.453Z,16.70
2017-09-25T11:29:48.550Z,16.60
2017-09-25T11:32:16.627Z,16.50
2017-09-25T11:34:44.716Z,16.50
2017-09-25T11:37:12.801Z,16.50
2017-09-25T11:39:40.896Z,16.50
2017-09-25T11:42:08.971Z,16.50
2017-09-25T11:44:37.068Z,16.60
2017-09-25T11:47:05.142Z,16.60
2017-09-25T11:49:33.228Z,16.60
2017-09-25T11:52:02.101Z,16.60
2017-09-25T11:54:30.178Z,16.60
2017-09-25T11:56:58.260Z,16.50
2017-09-25T11:59:27.131Z,16.30
2017-09-25T12:01:55.204Z,16.30
2017-09-25T12:04:23.277Z,16.30
2017-09-25T12:06:51.364Z,16.10
2017-09-25T12:09:20.221Z,16.00
2017-09-25T12:11:48.312Z,16.00
2017-09-25T12:14:16.388Z,16.00
2017-09-25T12:16:44.472Z,16.00
2017-09-25T12:19:13.308Z,16.10
2017-09-25T12:21:41.399Z,16.00
2017-09-25T12:24:09.467Z,16.10
2017-09-25T12:26:37.557Z,16.10
2017-09-25T12:29:05.627Z,16.10
2017-09-25T12:31:33.748Z,16.10
2017-09-25T12:34:01.816Z,16.10
2017-09-25T12:36:29.912Z,16.10
2017-09-25T12:38:57.986Z,16.10
2017-09-25T12:41:26.081Z,16.20
2017-09-25T12:43:54.157Z,16.20
2017-09-25T12:46:22.243Z,16.30
2017-09-25T12:48:50.328Z,16.30
2017-09-25T12:51:19.183Z,16.30
2017-09-25T12:53:47.264Z,16.30
2017-09-25T12:56:15.387Z,16.30
2017-09-25T12:58:44.232Z,16.30
2017-09-25T13:01:12.321Z,16.30
2017-09-25T13:03:40.390Z,16.40
2017-09-25T13:06:08.483Z,16.40
2017-09-25T13:08:37.366Z,16.50
2017-09-25T13:11:05.447Z,16.50
2017-09-25T13:13:34.296Z,16.60
2017-09-25T13:16:02.380Z,16.60
2017-09-25T13:18:30.468Z,16.60
2017-09-25T13:20:58.584Z,16.70
2017-09-25T13:23:26.662Z,16.70
2017-09-25T13:25:54.754Z,16.90
2017-09-25T13:28:23.368Z,17.00
2017-09-25T13:30:51.464Z,17.00
2017-09-25T13:33:20.314Z,16.90
2017-09-25T13:35:48.396Z,16.90
2017-09-25T13:38:16.479Z,16.80
2017-09-25T13:40:44.560Z,16.80
2017-09-25T13:43:13.411Z,16.90
2017-09-25T13:45:41.498Z,16.90
2017-09-25T13:48:11.052Z,17.00
2017-09-25T13:50:39.900Z,17.10
2017-09-25T13:53:08.796Z,17.20
2017-09-25T13:55:36.884Z,17.20
2017-09-25T13:58:04.959Z,17.10
2017-09-25T14:03:07.317Z,17.00
2017-09-25T14:05:35.454Z,17.00
2017-09-25T14:08:03.581Z,17.00
2017-09-25T14:10:31.723Z,16.90
2017-09-25T14:12:59.844Z,16.90
2017-09-25T14:15:27.976Z,17.00
2017-09-25T14:17:56.924Z,17.10
2017-09-25T14:20:25.815Z,17.10
2017-09-25T14:22:54.711Z,17.20
2017-09-25T14:25:23.604Z,17.30
2017-09-25T14:27:52.512Z,17.30
2017-09-25T14:30:20.648Z,17.30
2017-09-25T14:32:49.640Z,17.30
2017-09-25T14:35:17.764Z,17.30
2017-09-25T14:37:46.020Z,17.20
2017-09-25T14:40:14.911Z,17.20
2017-09-25T14:42:43.816Z,17.20
2017-09-25T14:45:11.964Z,17.10
2017-09-25T14:47:40.860Z,17.10
2017-09-25T14:50:09.778Z,17.20
2017-09-25T14:52:37.927Z,17.20
2017-09-25T14:55:06.815Z,17.10
2017-09-25T14:57:35.715Z,17.20
2017-09-25T15:00:03.884Z,17.20
2017-09-25T15:02:32.802Z,17.20
2017-09-25T15:05:00.942Z,17.20
2017-09-25T15:07:29.839Z,17.20
2017-09-25T15:09:57.995Z,17.20
2017-09-25T15:12:26.137Z,17.20
2017-09-25T15:14:54.276Z,17.20
2017-09-25T15:17:22.455Z,17.20
2017-09-25T15:19:50.577Z,17.20
2017-09-25T15:22:18.797Z,17.20
2017-09-25T15:24:46.991Z,17.20
2017-09-25T15:27:15.299Z,17.20
2017-09-25T15:29:43.427Z,17.30
2017-09-25T15:32:11.633Z,17.30
2017-09-25T15:34:39.879Z,17.40
2017-09-25T15:37:08.118Z,17.40
2017-09-25T15:39:36.238Z,17.50
2017-09-25T15:42:04.376Z,17.50
2017-09-25T15:44:33.287Z,17.40
2017-09-25T15:47:02.191Z,17.40
2017-09-25T15:49:30.323Z,17.40
2017-09-25T15:51:58.449Z,17.30
2017-09-25T15:54:26.570Z,17.30
2017-09-25T15:56:54.703Z,17.50
2017-09-25T15:59:22.825Z,17.50
2017-09-25T16:01:50.970Z,17.30
2017-09-25T16:04:19.092Z,17.30
2017-09-25T16:06:47.988Z,17.20
2017-09-25T16:09:16.876Z,17.20
2017-09-25T16:11:45.768Z,17.10
2017-09-25T16:14:14.655Z,17.10
2017-09-25T16:16:43.558Z,17.10
2017-09-25T16:19:12.548Z,17.00
2017-09-25T16:21:41.444Z,16.80
2017-09-25T16:24:10.337Z,16.80
2017-09-25T16:26:39.231Z,16.70
2017-09-25T16:29:07.364Z,16.70
2017-09-25T16:31:35.508Z,16.60
2017-09-25T16:34:03.635Z,16.70
2017-09-25T16:36:32.531Z,16.50
2017-09-25T16:39:00.650Z,16.50
2017-09-25T16:41:28.775Z,16.40
2017-09-25T16:43:57.670Z,16.40
2017-09-25T16:46:26.576Z,16.40
2017-09-25T16:48:54.703Z,16.40
2017-09-25T16:51:22.841Z,16.30
2017-09-25T16:53:50.960Z,16.30
2017-09-25T16:56:19.095Z,16.30
2017-09-25T16:58:47.211Z,16.20
2017-09-25T17:01:15.335Z,16.20
2017-09-25T17:03:44.230Z,16.10
2017-09-25T17:06:12.350Z,16.10
2017-09-25T17:08:40.483Z,16.00
2017-09-25T17:11:09.376Z,15.90
2017-09-25T17:13:38.275Z,15.90
2017-09-25T17:16:06.412Z,15.90
2017-09-25T17:18:34.559Z,15.80
2017-09-25T17:21:03.478Z,15.70
2017-09-25T17:23:31.617Z,15.70
2017-09-25T17:25:59.762Z,15.70
2017-09-25T17:28:28.664Z,15.60
2017-09-25T17:30:56.815Z,15.60
2017-09-25T17:33:25.739Z,15.60
2017-09-25T17:35:53.895Z,15.50
2017-09-25T17:38:22.049Z,15.60
2017-09-25T17:40:50.177Z,15.60
2017-09-25T17:43:18.324Z,15.50
2017-09-25T17:45:46.497Z,15.40
2017-09-25T17:48:14.663Z,15.40
2017-09-25T17:50:42.807Z,15.40
2017-09-25T17:53:10.954Z,15.40
2017-09-25T17:55:40.825Z,15.40
2017-09-25T17:58:08.974Z,15.40
2017-09-25T18:00:37.128Z,15.50
2017-09-25T18:03:06.030Z,15.40
2017-09-25T18:05:34.175Z,15.40
2017-09-25T18:08:02.316Z,15.40
2017-09-25T18:10:30.456Z,15.30
2017-09-25T18:12:58.595Z,15.30
2017-09-25T18:15:26.724Z,15.30
2017-09-25T18:17:54.868Z,15.30
2017-09-25T18:20:23.764Z,15.30
2017-09-25T18:22:51.911Z,15.20
2017-09-25T18:25:20.195Z,15.30
2017-09-25T18:27:49.098Z,15.20
2017-09-25T18:30:18.490Z,15.10
2017-09-25T18:32:46.639Z,15.10
2017-09-25T18:35:14.758Z,15.00
2017-09-25T18:37:43.656Z,14.90
2017-09-25T18:40:11.797Z,14.90
2017-09-25T18:42:39.932Z,14.80
2017-09-25T18:45:08.069Z,14.70
2017-09-25T18:47:36.971Z,14.70
2017-09-25T18:50:05.105Z,14.70
2017-09-25T18:52:33.247Z,14.70
2017-09-25T18:55:01.381Z,14.60
2017-09-25T18:57:30.281Z,14.40
2017-09-25T18:59:58.421Z,14.40
2017-09-25T19:02:26.560Z,14.30
2017-09-25T19:04:54.776Z,14.40
2017-09-25T19:07:23.689Z,14.30
2017-09-25T19:09:52.586Z,14.10
2017-09-25T19:12:20.727Z,14.10
2017-09-25T19:14:48.859Z,14.00
2017-09-25T19:17:17.005Z,14.00
2017-09-25T19:19:45.896Z,13.90
2017-09-25T19:22:14.166Z,13.90
2017-09-25T19:24:43.099Z,13.70
2017-09-25T19:27:12.008Z,13.70
2017-09-25T19:29:40.138Z,13.70
2017-09-25T19:32:09.046Z,13.70
2017-09-25T19:34:37.166Z,13.70
2017-09-25T19:37:05.307Z,13.70
2017-09-25T19:39:33.439Z,13.60
2017-09-25T19:42:02.368Z,13.30
2017-09-25T19:44:30.504Z,13.30
2017-09-25T19:46:59.424Z,13.30
2017-09-25T19:49:40.247Z,13.30
2017-09-25T19:52:08.387Z,13.30
2017-09-25T19:54:43.128Z,13.20
2017-09-25T19:57:12.183Z,13.20
2017-09-25T19:59:40.321Z,13.20
2017-09-25T20:02:08.462Z,13.10
2017-09-25T20:04:36.603Z,13.10
2017-09-25T20:07:04.741Z,13.10
2017-09-25T20:09:32.884Z,13.10
2017-09-25T20:12:01.016Z,13.10
2017-09-25T20:17:55.076Z,13.00
2017-09-25T20:20:23.219Z,13.00
2017-09-25T20:22:51.367Z,12.90
2017-09-25T20:25:20.285Z,12.90
2017-09-25T20:27:49.527Z,12.90
2017-09-25T20:30:17.659Z,12.90
2017-09-25T20:32:46.559Z,12.80
2017-09-25T20:35:14.725Z,12.70
2017-09-25T20:37:42.873Z,12.70
2017-09-25T20:40:11.008Z,12.70
2017-09-25T20:42:39.169Z,12.70
2017-09-25T20:45:07.304Z,12.70
2017-09-25T20:47:35.435Z,12.70
2017-09-25T20:50:03.595Z,12.60
2017-09-25T20:52:31.715Z,12.60
2017-09-25T20:55:00.622Z,12.60
2017-09-25T20:57:28.772Z,12.60
2017-09-25T20:59:57.685Z,12.60
2017-09-25T21:02:25.829Z,12.50
2017-09-25T21:04:54.743Z,12.50
2017-09-25T21:07:22.872Z,12.50
2017-09-25T21:09:51.003Z,12.40
2017-09-25T21:12:19.130Z,12.40
2017-09-25T21:14:48.282Z,12.30
2017-09-25T21:17:16.408Z,12.30
2017-09-25T21:19:45.354Z,12.20
2017-09-25T21:22:13.479Z,12.20
2017-09-25T21:24:42.284Z,12.20
2017-09-25T21:30:14.904Z,12.10
2017-09-25T21:32:43.034Z,12.10
2017-09-25T21:35:11.191Z,12.10
2017-09-25T21:37:39.320Z,12.10
2017-09-25T21:40:07.463Z,12.10
2017-09-25T21:42:36.384Z,12.00
2017-09-25T21:45:04.512Z,12.00
2017-09-25T21:47:32.654Z,12.00
2017-09-25T21:50:00.787Z,11.90
2017-09-25T21:52:29.690Z,11.90
2017-09-25T21:54:58.578Z,11.90
2017-09-25T21:57:27.483Z,11.80
2017-09-25T21:59:55.635Z,11.80
2017-09-25T22:02:24.542Z,11.80
2017-09-25T22:04:53.442Z,11.80
2017-09-25T22:07:21.579Z,11.80
2017-09-25T22:09:49.711Z,11.80
2017-09-25T22:12:17.858Z,11.80
2017-09-25T22:14:45.995Z,11.80
2017-09-25T22:17:14.114Z,11.80
2017-09-25T22:19:42.460Z,11.70
2017-09-25T22:22:10.811Z,11.70
2017-09-25T22:24:38.948Z,11.70
2017-09-25T22:27:07.080Z,11.70
2017-09-25T22:29:35.220Z,11.70
2017-09-25T22:32:04.106Z,11.60
2017-09-25T22:34:32.234Z,11.60
2017-09-25T22:37:01.126Z,11.60
2017-09-25T22:39:30.027Z,11.50
2017-09-25T22:41:58.923Z,11.50
2017-09-25T22:44:33.623Z,11.50
2017-09-25T22:47:01.746Z,11.50
2017-09-25T22:49:30.651Z,11.40
2017-09-25T22:51:58.797Z,11.40
2017-09-25T22:54:26.937Z,11.40
2017-09-25T22:56:55.061Z,11.40
2017-09-25T22:59:23.205Z,11.40
2017-09-25T23:01:52.100Z,11.30
2017-09-25T23:04:21.021Z,11.30
2017-09-25T23:06:49.145Z,11.30
2017-09-25T23:09:20.591Z,11.20
2017-09-25T23:11:48.736Z,11.20
2017-09-25T23:14:16.863Z,11.20
2017-09-25T23:16:45.764Z,11.10
2017-09-25T23:19:14.659Z,11.10
2017-09-25T23:21:42.799Z,11.10
2017-09-25T23:24:10.928Z,11.10
2017-09-25T23:26:39.067Z,11.10
2017-09-25T23:29:07.955Z,11.10
2017-09-25T23:31:37.333Z,11.10
2017-09-25T23:34:05.465Z,11.10
2017-09-25T23:36:33.602Z,11.20
2017-09-25T23:39:02.494Z,11.10
2017-09-25T23:41:31.407Z,11.10
2017-09-25T23:43:59.531Z,11.10
2017-09-25T23:46:27.650Z,11.10
2017-09-25T23:48:56.541Z,11.20
2017-09-25T23:51:25.426Z,11.10
2017-09-25T23:53:54.322Z,11.10
2017-09-25T23:56:22.458Z,11.10
2017-09-25T23:58:50.607Z,11.00
